sensor_id;sensor_type;location;lat;lon;timestamp;temperature;humidity
290;DHT22;13193;48.874;9.086;2022-08-01T00:00:29;20.60;1.00
290;DHT22;13193;48.874;9.086;2022-08-01T00:02:57;20.60;1.00
290;DHT22;13193;48.874;9.086;2022-08-01T00:05:25;20.60;1.00
290;DHT22;13193;48.874;9.086;2022-08-01T00:07:58;20.70;1.00
290;DHT22;13193;48.874;9.086;2022-08-01T00:10:26;20.60;1.00
290;DHT22;13193;48.874;9.086;2022-08-01T00:12:54;20.60;1.00
290;DHT22;13193;48.874;9.086;2022-08-01T00:15:19;20.50;1.00
290;DHT22;13193;48.874;9.086;2022-08-01T00:17:48;20.50;1.00
290;DHT22;13193;48.874;9.086;2022-08-01T00:20:21;20.50;1.00
290;DHT22;13193;48.874;9.086;2022-08-01T00:22:53;20.50;1.00
290;DHT22;13193;48.874;9.086;2022-08-01T00:25:21;20.50;1.00
290;DHT22;13193;48.874;9.086;2022-08-01T00:27:51;20.50;1.00
290;DHT22;13193;48.874;9.086;2022-08-01T00:30:19;20.50;1.00
290;DHT22;13193;48.874;9.086;2022-08-01T00:32:45;20.50;1.00
290;DHT22;13193;48.874;9.086;2022-08-01T00:35:11;20.50;1.00
290;DHT22;13193;48.874;9.086;2022-08-01T00:37:41;20.50;1.00
290;DHT22;13193;48.874;9.086;2022-08-01T00:40:10;20.50;1.00
290;DHT22;13193;48.874;9.086;2022-08-01T00:42:38;20.50;1.00
290;DHT22;13193;48.874;9.086;2022-08-01T00:45:07;20.50;1.00
290;DHT22;13193;48.874;9.086;2022-08-01T00:47:35;20.40;1.00
290;DHT22;13193;48.874;9.086;2022-08-01T00:50:03;20.40;1.00
290;DHT22;13193;48.874;9.086;2022-08-01T00:52:39;20.40;1.00
290;DHT22;13193;48.874;9.086;2022-08-01T00:55:11;20.50;1.00
290;DHT22;13193;48.874;9.086;2022-08-01T00:57:47;20.40;1.00
290;DHT22;13193;48.874;9.086;2022-08-01T01:00:18;20.50;1.00
290;DHT22;13193;48.874;9.086;2022-08-01T01:02:47;20.40;1.00
290;DHT22;13193;48.874;9.086;2022-08-01T01:05:18;20.40;1.00
290;DHT22;13193;48.874;9.086;2022-08-01T01:08:04;20.40;1.00
290;DHT22;13193;48.874;9.086;2022-08-01T01:10:45;20.40;1.00
290;DHT22;13193;48.874;9.086;2022-08-01T01:16:10;20.50;1.00
290;DHT22;13193;48.874;9.086;2022-08-01T01:18:55;20.50;1.00
290;DHT22;13193;48.874;9.086;2022-08-01T01:25:16;20.50;1.00
290;DHT22;13193;48.874;9.086;2022-08-01T01:27:22;20.40;1.00
290;DHT22;13193;48.874;9.086;2022-08-01T01:29:54;20.40;1.00
290;DHT22;13193;48.874;9.086;2022-08-01T01:32:41;20.40;1.00
290;DHT22;13193;48.874;9.086;2022-08-01T01:35:24;20.40;1.00
290;DHT22;13193;48.874;9.086;2022-08-01T01:38:10;20.40;1.00
290;DHT22;13193;48.874;9.086;2022-08-01T01:40:39;20.40;1.00
290;DHT22;13193;48.874;9.086;2022-08-01T01:43:10;20.40;1.00
290;DHT22;13193;48.874;9.086;2022-08-01T01:45:37;20.40;1.00
290;DHT22;13193;48.874;9.086;2022-08-01T01:48:06;20.40;1.00
290;DHT22;13193;48.874;9.086;2022-08-01T01:50:33;20.40;1.00
290;DHT22;13193;48.874;9.086;2022-08-01T01:53:01;20.40;1.00
290;DHT22;13193;48.874;9.086;2022-08-01T01:55:30;20.40;1.00
290;DHT22;13193;48.874;9.086;2022-08-01T01:57:57;20.50;1.00
290;DHT22;13193;48.874;9.086;2022-08-01T02:00:23;20.50;1.00
290;DHT22;13193;48.874;9.086;2022-08-01T02:02:53;20.50;1.00
290;DHT22;13193;48.874;9.086;2022-08-01T02:05:21;20.40;1.00
290;DHT22;13193;48.874;9.086;2022-08-01T02:07:47;20.40;1.00
290;DHT22;13193;48.874;9.086;2022-08-01T02:10:15;20.40;1.00
290;DHT22;13193;48.874;9.086;2022-08-01T02:12:43;20.30;1.00
290;DHT22;13193;48.874;9.086;2022-08-01T02:15:12;20.30;1.00
290;DHT22;13193;48.874;9.086;2022-08-01T02:17:42;20.20;1.00
290;DHT22;13193;48.874;9.086;2022-08-01T02:20:09;20.10;1.00
290;DHT22;13193;48.874;9.086;2022-08-01T02:22:53;20.00;1.00
290;DHT22;13193;48.874;9.086;2022-08-01T02:25:29;20.00;1.00
290;DHT22;13193;48.874;9.086;2022-08-01T02:31:01;19.80;1.00
290;DHT22;13193;48.874;9.086;2022-08-01T02:33:41;19.80;1.00
290;DHT22;13193;48.874;9.086;2022-08-01T02:36:08;19.70;1.00
290;DHT22;13193;48.874;9.086;2022-08-01T02:38:39;19.60;1.00
290;DHT22;13193;48.874;9.086;2022-08-01T02:41:09;19.60;1.00
290;DHT22;13193;48.874;9.086;2022-08-01T02:43:42;19.50;1.00
290;DHT22;13193;48.874;9.086;2022-08-01T02:46:17;19.50;1.00
290;DHT22;13193;48.874;9.086;2022-08-01T02:48:47;19.40;1.00
290;DHT22;13193;48.874;9.086;2022-08-01T02:51:14;19.30;1.00
290;DHT22;13193;48.874;9.086;2022-08-01T02:53:42;19.30;1.00
290;DHT22;13193;48.874;9.086;2022-08-01T02:56:11;19.20;1.00
290;DHT22;13193;48.874;9.086;2022-08-01T02:58:39;19.20;1.00
290;DHT22;13193;48.874;9.086;2022-08-01T03:01:06;19.10;1.00
290;DHT22;13193;48.874;9.086;2022-08-01T03:03:33;19.00;1.00
290;DHT22;13193;48.874;9.086;2022-08-01T03:06:00;19.00;1.00
290;DHT22;13193;48.874;9.086;2022-08-01T03:08:28;19.00;1.00
290;DHT22;13193;48.874;9.086;2022-08-01T03:10:59;19.00;1.00
290;DHT22;13193;48.874;9.086;2022-08-01T03:13:27;18.90;1.00
290;DHT22;13193;48.874;9.086;2022-08-01T03:15:54;18.80;1.00
290;DHT22;13193;48.874;9.086;2022-08-01T03:18:23;18.80;1.00
290;DHT22;13193;48.874;9.086;2022-08-01T03:20:50;18.80;1.00
290;DHT22;13193;48.874;9.086;2022-08-01T03:23:19;18.80;1.00
290;DHT22;13193;48.874;9.086;2022-08-01T03:25:46;18.70;1.00
290;DHT22;13193;48.874;9.086;2022-08-01T03:28:14;18.70;1.00
290;DHT22;13193;48.874;9.086;2022-08-01T03:30:42;18.60;1.00
290;DHT22;13193;48.874;9.086;2022-08-01T03:33:08;18.60;1.00
290;DHT22;13193;48.874;9.086;2022-08-01T03:35:39;18.50;1.00
290;DHT22;13193;48.874;9.086;2022-08-01T03:38:07;18.50;1.00
290;DHT22;13193;48.874;9.086;2022-08-01T03:40:45;18.40;1.00
290;DHT22;13193;48.874;9.086;2022-08-01T03:43:43;18.40;1.00
290;DHT22;13193;48.874;9.086;2022-08-01T03:46:10;18.30;1.00
290;DHT22;13193;48.874;9.086;2022-08-01T03:48:41;18.20;1.00
290;DHT22;13193;48.874;9.086;2022-08-01T03:51:08;18.20;1.00
290;DHT22;13193;48.874;9.086;2022-08-01T03:53:37;18.20;1.00
290;DHT22;13193;48.874;9.086;2022-08-01T03:56:04;18.10;1.00
290;DHT22;13193;48.874;9.086;2022-08-01T03:58:34;18.20;1.00
290;DHT22;13193;48.874;9.086;2022-08-01T04:01:00;18.10;1.00
290;DHT22;13193;48.874;9.086;2022-08-01T04:03:27;18.10;1.00
290;DHT22;13193;48.874;9.086;2022-08-01T04:05:53;18.10;1.00
290;DHT22;13193;48.874;9.086;2022-08-01T04:08:20;18.10;1.00
290;DHT22;13193;48.874;9.086;2022-08-01T04:10:46;18.20;1.00
290;DHT22;13193;48.874;9.086;2022-08-01T04:13:12;18.20;1.00
290;DHT22;13193;48.874;9.086;2022-08-01T04:15:38;18.30;1.00
290;DHT22;13193;48.874;9.086;2022-08-01T04:18:03;18.40;1.00
290;DHT22;13193;48.874;9.086;2022-08-01T04:20:29;18.40;1.00
290;DHT22;13193;48.874;9.086;2022-08-01T04:22:55;18.50;1.00
290;DHT22;13193;48.874;9.086;2022-08-01T04:25:27;18.60;1.00
290;DHT22;13193;48.874;9.086;2022-08-01T04:27:55;18.60;1.00
290;DHT22;13193;48.874;9.086;2022-08-01T04:30:31;18.70;1.00
290;DHT22;13193;48.874;9.086;2022-08-01T04:33:00;18.80;1.00
290;DHT22;13193;48.874;9.086;2022-08-01T04:35:27;18.90;1.00
290;DHT22;13193;48.874;9.086;2022-08-01T04:37:53;19.00;1.00
290;DHT22;13193;48.874;9.086;2022-08-01T04:40:22;19.00;1.00
290;DHT22;13193;48.874;9.086;2022-08-01T04:42:49;19.10;1.00
290;DHT22;13193;48.874;9.086;2022-08-01T04:45:16;19.20;1.00
290;DHT22;13193;48.874;9.086;2022-08-01T04:47:43;19.30;1.00
290;DHT22;13193;48.874;9.086;2022-08-01T04:50:09;19.40;1.00
290;DHT22;13193;48.874;9.086;2022-08-01T04:52:36;19.50;1.00
290;DHT22;13193;48.874;9.086;2022-08-01T04:55:04;19.60;1.00
290;DHT22;13193;48.874;9.086;2022-08-01T04:57:33;19.80;1.00
290;DHT22;13193;48.874;9.086;2022-08-01T05:00:00;20.00;1.00
290;DHT22;13193;48.874;9.086;2022-08-01T05:02:28;20.30;1.00
290;DHT22;13193;48.874;9.086;2022-08-01T05:04:57;20.50;1.00
290;DHT22;13193;48.874;9.086;2022-08-01T05:07:22;20.90;1.00
290;DHT22;13193;48.874;9.086;2022-08-01T05:09:48;21.30;1.00
290;DHT22;13193;48.874;9.086;2022-08-01T05:12:14;21.80;1.00
290;DHT22;13193;48.874;9.086;2022-08-01T05:14:40;22.40;1.00
290;DHT22;13193;48.874;9.086;2022-08-01T05:17:07;23.00;1.00
290;DHT22;13193;48.874;9.086;2022-08-01T05:19:36;23.60;1.00
290;DHT22;13193;48.874;9.086;2022-08-01T05:24:44;24.80;1.00
290;DHT22;13193;48.874;9.086;2022-08-01T05:27:12;25.50;1.00
290;DHT22;13193;48.874;9.086;2022-08-01T05:29:41;26.10;1.00
290;DHT22;13193;48.874;9.086;2022-08-01T05:32:20;26.70;1.00
290;DHT22;13193;48.874;9.086;2022-08-01T05:34:48;27.20;1.00
290;DHT22;13193;48.874;9.086;2022-08-01T05:37:17;27.70;1.00
290;DHT22;13193;48.874;9.086;2022-08-01T05:39:45;28.20;1.00
290;DHT22;13193;48.874;9.086;2022-08-01T05:42:13;28.40;1.00
290;DHT22;13193;48.874;9.086;2022-08-01T05:44:39;28.40;1.00
290;DHT22;13193;48.874;9.086;2022-08-01T05:47:06;28.40;1.00
290;DHT22;13193;48.874;9.086;2022-08-01T05:49:37;28.30;1.00
290;DHT22;13193;48.874;9.086;2022-08-01T05:52:02;28.10;1.00
290;DHT22;13193;48.874;9.086;2022-08-01T05:54:36;28.10;1.00
290;DHT22;13193;48.874;9.086;2022-08-01T05:57:06;28.10;1.00
290;DHT22;13193;48.874;9.086;2022-08-01T05:59:44;28.00;1.00
290;DHT22;13193;48.874;9.086;2022-08-01T06:02:15;27.80;1.00
290;DHT22;13193;48.874;9.086;2022-08-01T06:04:44;27.70;1.00
290;DHT22;13193;48.874;9.086;2022-08-01T06:07:10;27.80;1.00
290;DHT22;13193;48.874;9.086;2022-08-01T06:09:35;28.00;1.00
290;DHT22;13193;48.874;9.086;2022-08-01T06:12:01;28.10;1.00
290;DHT22;13193;48.874;9.086;2022-08-01T06:14:33;28.20;1.00
290;DHT22;13193;48.874;9.086;2022-08-01T06:17:01;28.20;1.00
290;DHT22;13193;48.874;9.086;2022-08-01T06:19:29;28.10;1.00
290;DHT22;13193;48.874;9.086;2022-08-01T06:22:01;28.10;1.00
290;DHT22;13193;48.874;9.086;2022-08-01T06:24:32;28.00;1.00
290;DHT22;13193;48.874;9.086;2022-08-01T06:26:58;27.90;1.00
290;DHT22;13193;48.874;9.086;2022-08-01T06:29:27;27.80;1.00
290;DHT22;13193;48.874;9.086;2022-08-01T06:31:57;27.80;1.00
290;DHT22;13193;48.874;9.086;2022-08-01T06:34:23;27.90;1.00
290;DHT22;13193;48.874;9.086;2022-08-01T06:36:49;28.00;1.00
290;DHT22;13193;48.874;9.086;2022-08-01T06:39:14;28.00;1.00
290;DHT22;13193;48.874;9.086;2022-08-01T06:41:42;27.90;1.00
290;DHT22;13193;48.874;9.086;2022-08-01T06:44:12;27.90;1.00
290;DHT22;13193;48.874;9.086;2022-08-01T06:46:43;27.80;1.00
290;DHT22;13193;48.874;9.086;2022-08-01T06:49:11;27.60;1.00
290;DHT22;13193;48.874;9.086;2022-08-01T06:51:37;27.50;1.00
290;DHT22;13193;48.874;9.086;2022-08-01T06:54:05;27.50;1.00
290;DHT22;13193;48.874;9.086;2022-08-01T06:56:30;27.60;1.00
290;DHT22;13193;48.874;9.086;2022-08-01T06:58:56;27.80;1.00
290;DHT22;13193;48.874;9.086;2022-08-01T07:01:27;27.80;1.00
290;DHT22;13193;48.874;9.086;2022-08-01T07:04:00;27.90;1.00
290;DHT22;13193;48.874;9.086;2022-08-01T07:06:26;28.00;1.00
290;DHT22;13193;48.874;9.086;2022-08-01T07:08:52;28.10;1.00
290;DHT22;13193;48.874;9.086;2022-08-01T07:11:18;28.20;1.00
290;DHT22;13193;48.874;9.086;2022-08-01T07:13:44;28.40;1.00
290;DHT22;13193;48.874;9.086;2022-08-01T07:16:14;28.50;1.00
290;DHT22;13193;48.874;9.086;2022-08-01T07:18:40;28.60;1.00
290;DHT22;13193;48.874;9.086;2022-08-01T07:21:06;28.70;1.00
290;DHT22;13193;48.874;9.086;2022-08-01T07:23:35;28.80;1.00
290;DHT22;13193;48.874;9.086;2022-08-01T07:26:03;28.80;1.00
290;DHT22;13193;48.874;9.086;2022-08-01T07:28:29;28.70;1.00
290;DHT22;13193;48.874;9.086;2022-08-01T07:30:55;28.40;1.00
290;DHT22;13193;48.874;9.086;2022-08-01T07:33:21;28.20;1.00
290;DHT22;13193;48.874;9.086;2022-08-01T07:35:47;28.10;1.00
290;DHT22;13193;48.874;9.086;2022-08-01T07:38:18;28.00;1.00
290;DHT22;13193;48.874;9.086;2022-08-01T07:40:47;27.90;1.00
290;DHT22;13193;48.874;9.086;2022-08-01T07:43:12;27.90;1.00
290;DHT22;13193;48.874;9.086;2022-08-01T07:45:39;27.80;1.00
290;DHT22;13193;48.874;9.086;2022-08-01T07:48:07;27.50;1.00
290;DHT22;13193;48.874;9.086;2022-08-01T07:50:33;27.30;1.00
290;DHT22;13193;48.874;9.086;2022-08-01T07:52:59;27.30;1.00
290;DHT22;13193;48.874;9.086;2022-08-01T07:55:25;27.30;1.00
290;DHT22;13193;48.874;9.086;2022-08-01T07:57:54;27.20;1.00
290;DHT22;13193;48.874;9.086;2022-08-01T08:00:19;27.10;1.00
290;DHT22;13193;48.874;9.086;2022-08-01T08:02:45;27.00;1.00
290;DHT22;13193;48.874;9.086;2022-08-01T08:05:11;26.90;1.00
290;DHT22;13193;48.874;9.086;2022-08-01T08:07:37;26.90;1.00
290;DHT22;13193;48.874;9.086;2022-08-01T08:10:04;26.80;1.00
290;DHT22;13193;48.874;9.086;2022-08-01T08:12:30;26.90;1.00
290;DHT22;13193;48.874;9.086;2022-08-01T08:14:58;27.00;1.00
290;DHT22;13193;48.874;9.086;2022-08-01T08:17:25;27.00;1.00
290;DHT22;13193;48.874;9.086;2022-08-01T08:19:51;27.00;1.00
290;DHT22;13193;48.874;9.086;2022-08-01T08:22:17;27.10;1.00
290;DHT22;13193;48.874;9.086;2022-08-01T08:24:43;27.10;1.00
290;DHT22;13193;48.874;9.086;2022-08-01T08:27:09;27.10;1.00
290;DHT22;13193;48.874;9.086;2022-08-01T08:29:35;27.10;1.00
290;DHT22;13193;48.874;9.086;2022-08-01T08:32:01;27.10;1.00
290;DHT22;13193;48.874;9.086;2022-08-01T08:34:27;27.20;1.00
290;DHT22;13193;48.874;9.086;2022-08-01T08:43:04;27.30;1.00
290;DHT22;13193;48.874;9.086;2022-08-01T08:45:31;27.50;1.00
290;DHT22;13193;48.874;9.086;2022-08-01T08:47:57;27.60;1.00
290;DHT22;13193;48.874;9.086;2022-08-01T08:50:25;27.70;1.00
290;DHT22;13193;48.874;9.086;2022-08-01T08:52:55;27.80;1.00
290;DHT22;13193;48.874;9.086;2022-08-01T08:55:22;27.90;1.00
290;DHT22;13193;48.874;9.086;2022-08-01T08:57:49;27.80;1.00
290;DHT22;13193;48.874;9.086;2022-08-01T09:00:15;27.80;1.00
290;DHT22;13193;48.874;9.086;2022-08-01T09:02:45;27.60;1.00
290;DHT22;13193;48.874;9.086;2022-08-01T09:08:37;27.30;1.00
290;DHT22;13193;48.874;9.086;2022-08-01T09:11:03;27.00;1.00
290;DHT22;13193;48.874;9.086;2022-08-01T09:13:29;27.00;1.00
290;DHT22;13193;48.874;9.086;2022-08-01T09:15:56;27.00;1.00
290;DHT22;13193;48.874;9.086;2022-08-01T09:18:34;27.00;1.00
290;DHT22;13193;48.874;9.086;2022-08-01T09:21:09;27.10;1.00
290;DHT22;13193;48.874;9.086;2022-08-01T09:23:41;27.30;1.00
290;DHT22;13193;48.874;9.086;2022-08-01T09:26:09;27.40;1.00
290;DHT22;13193;48.874;9.086;2022-08-01T09:28:34;27.60;1.00
290;DHT22;13193;48.874;9.086;2022-08-01T09:31:06;27.90;1.00
290;DHT22;13193;48.874;9.086;2022-08-01T09:33:53;28.10;1.00
290;DHT22;13193;48.874;9.086;2022-08-01T09:36:23;28.30;1.00
290;DHT22;13193;48.874;9.086;2022-08-01T09:38:53;28.50;1.00
290;DHT22;13193;48.874;9.086;2022-08-01T09:41:30;28.50;1.00
290;DHT22;13193;48.874;9.086;2022-08-01T09:44:01;28.50;1.00
290;DHT22;13193;48.874;9.086;2022-08-01T09:46:27;28.50;1.00
290;DHT22;13193;48.874;9.086;2022-08-01T09:51:38;28.50;1.00
290;DHT22;13193;48.874;9.086;2022-08-01T09:54:06;28.60;1.00
290;DHT22;13193;48.874;9.086;2022-08-01T09:56:38;28.60;1.00
290;DHT22;13193;48.874;9.086;2022-08-01T09:59:05;28.60;1.00
290;DHT22;13193;48.874;9.086;2022-08-01T10:01:45;28.60;1.00
290;DHT22;13193;48.874;9.086;2022-08-01T10:04:12;28.40;1.00
290;DHT22;13193;48.874;9.086;2022-08-01T10:06:40;28.10;1.00
290;DHT22;13193;48.874;9.086;2022-08-01T10:09:08;27.80;1.00
290;DHT22;13193;48.874;9.086;2022-08-01T10:11:34;27.70;1.00
290;DHT22;13193;48.874;9.086;2022-08-01T10:14:04;27.60;1.00
290;DHT22;13193;48.874;9.086;2022-08-01T10:16:32;27.40;1.00
290;DHT22;13193;48.874;9.086;2022-08-01T10:18:59;27.40;1.00
290;DHT22;13193;48.874;9.086;2022-08-01T10:21:27;27.20;1.00
290;DHT22;13193;48.874;9.086;2022-08-01T10:23:54;27.10;1.00
290;DHT22;13193;48.874;9.086;2022-08-01T10:26:24;27.20;1.00
290;DHT22;13193;48.874;9.086;2022-08-01T10:28:51;27.10;1.00
290;DHT22;13193;48.874;9.086;2022-08-01T10:31:18;27.00;1.00
290;DHT22;13193;48.874;9.086;2022-08-01T10:33:44;27.10;1.00
290;DHT22;13193;48.874;9.086;2022-08-01T10:36:10;27.10;1.00
290;DHT22;13193;48.874;9.086;2022-08-01T10:38:37;27.10;1.00
290;DHT22;13193;48.874;9.086;2022-08-01T10:41:04;27.40;1.00
290;DHT22;13193;48.874;9.086;2022-08-01T10:43:30;27.60;1.00
290;DHT22;13193;48.874;9.086;2022-08-01T10:45:56;27.80;1.00
290;DHT22;13193;48.874;9.086;2022-08-01T10:50:58;28.20;1.00
290;DHT22;13193;48.874;9.086;2022-08-01T10:53:26;28.50;1.00
290;DHT22;13193;48.874;9.086;2022-08-01T10:56:02;28.70;1.00
290;DHT22;13193;48.874;9.086;2022-08-01T10:58:47;28.80;1.00
290;DHT22;13193;48.874;9.086;2022-08-01T11:01:28;28.80;1.00
290;DHT22;13193;48.874;9.086;2022-08-01T11:06:39;28.70;1.00
290;DHT22;13193;48.874;9.086;2022-08-01T11:09:19;28.50;1.00
290;DHT22;13193;48.874;9.086;2022-08-01T11:12:06;28.40;1.00
290;DHT22;13193;48.874;9.086;2022-08-01T11:17:43;28.10;1.00
290;DHT22;13193;48.874;9.086;2022-08-01T11:20:33;28.00;1.00
290;DHT22;13193;48.874;9.086;2022-08-01T11:31:31;28.30;1.00
290;DHT22;13193;48.874;9.086;2022-08-01T11:38:36;28.50;1.00
290;DHT22;13193;48.874;9.086;2022-08-01T11:41:29;28.60;1.00
290;DHT22;13193;48.874;9.086;2022-08-01T11:44:10;28.50;1.00
290;DHT22;13193;48.874;9.086;2022-08-01T11:49:43;28.40;1.00
290;DHT22;13193;48.874;9.086;2022-08-01T11:52:25;28.60;1.00
290;DHT22;13193;48.874;9.086;2022-08-01T11:54:55;28.80;1.00
290;DHT22;13193;48.874;9.086;2022-08-01T11:57:28;29.10;1.00
290;DHT22;13193;48.874;9.086;2022-08-01T12:00:05;29.50;1.00
290;DHT22;13193;48.874;9.086;2022-08-01T12:02:35;29.80;1.00
290;DHT22;13193;48.874;9.086;2022-08-01T12:07:31;29.80;1.00
290;DHT22;13193;48.874;9.086;2022-08-01T12:12:29;29.60;1.00
290;DHT22;13193;48.874;9.086;2022-08-01T12:14:58;29.50;1.00
290;DHT22;13193;48.874;9.086;2022-08-01T12:17:32;29.50;1.00
290;DHT22;13193;48.874;9.086;2022-08-01T12:19:59;29.50;1.00
290;DHT22;13193;48.874;9.086;2022-08-01T12:22:25;29.50;1.00
290;DHT22;13193;48.874;9.086;2022-08-01T12:24:51;29.40;1.00
290;DHT22;13193;48.874;9.086;2022-08-01T12:27:28;29.20;1.00
290;DHT22;13193;48.874;9.086;2022-08-01T12:29:55;29.00;1.00
290;DHT22;13193;48.874;9.086;2022-08-01T12:34:50;29.00;1.00
290;DHT22;13193;48.874;9.086;2022-08-01T12:37:17;29.00;1.00
290;DHT22;13193;48.874;9.086;2022-08-01T12:39:44;29.10;1.00
290;DHT22;13193;48.874;9.086;2022-08-01T12:42:10;29.30;1.00
290;DHT22;13193;48.874;9.086;2022-08-01T12:44:37;29.30;1.00
290;DHT22;13193;48.874;9.086;2022-08-01T12:47:07;29.30;1.00
290;DHT22;13193;48.874;9.086;2022-08-01T12:49:36;29.40;1.00
290;DHT22;13193;48.874;9.086;2022-08-01T12:52:03;29.30;1.00
290;DHT22;13193;48.874;9.086;2022-08-01T12:54:29;29.20;1.00
290;DHT22;13193;48.874;9.086;2022-08-01T12:56:55;29.20;1.00
290;DHT22;13193;48.874;9.086;2022-08-01T12:59:26;29.20;1.00
290;DHT22;13193;48.874;9.086;2022-08-01T13:01:53;29.20;1.00
290;DHT22;13193;48.874;9.086;2022-08-01T13:04:20;29.20;1.00
290;DHT22;13193;48.874;9.086;2022-08-01T13:06:47;29.40;1.00
290;DHT22;13193;48.874;9.086;2022-08-01T13:09:13;29.40;1.00
290;DHT22;13193;48.874;9.086;2022-08-01T13:11:40;29.50;1.00
290;DHT22;13193;48.874;9.086;2022-08-01T13:14:07;29.70;1.00
290;DHT22;13193;48.874;9.086;2022-08-01T13:16:32;29.90;1.00
290;DHT22;13193;48.874;9.086;2022-08-01T13:19:11;30.00;1.00
290;DHT22;13193;48.874;9.086;2022-08-01T13:21:37;30.30;1.00
290;DHT22;13193;48.874;9.086;2022-08-01T13:24:11;30.40;1.00
290;DHT22;13193;48.874;9.086;2022-08-01T13:26:48;30.50;1.00
290;DHT22;13193;48.874;9.086;2022-08-01T13:29:21;30.60;1.00
290;DHT22;13193;48.874;9.086;2022-08-01T13:31:48;30.70;1.00
290;DHT22;13193;48.874;9.086;2022-08-01T13:34:14;30.70;1.00
290;DHT22;13193;48.874;9.086;2022-08-01T13:36:40;30.70;1.00
290;DHT22;13193;48.874;9.086;2022-08-01T13:39:06;30.60;1.00
290;DHT22;13193;48.874;9.086;2022-08-01T13:41:51;30.60;1.00
290;DHT22;13193;48.874;9.086;2022-08-01T13:44:17;30.60;1.00
290;DHT22;13193;48.874;9.086;2022-08-01T13:46:44;30.60;1.00
290;DHT22;13193;48.874;9.086;2022-08-01T13:49:11;30.60;1.00
290;DHT22;13193;48.874;9.086;2022-08-01T13:51:38;30.50;1.00
290;DHT22;13193;48.874;9.086;2022-08-01T13:54:04;30.40;1.00
290;DHT22;13193;48.874;9.086;2022-08-01T13:56:30;30.20;1.00
290;DHT22;13193;48.874;9.086;2022-08-01T13:58:56;30.20;1.00
290;DHT22;13193;48.874;9.086;2022-08-01T14:01:22;30.20;1.00
290;DHT22;13193;48.874;9.086;2022-08-01T14:03:49;30.10;1.00
290;DHT22;13193;48.874;9.086;2022-08-01T14:06:16;30.20;1.00
290;DHT22;13193;48.874;9.086;2022-08-01T14:08:43;30.30;1.00
290;DHT22;13193;48.874;9.086;2022-08-01T14:11:09;30.60;1.00
290;DHT22;13193;48.874;9.086;2022-08-01T14:13:35;30.90;1.00
290;DHT22;13193;48.874;9.086;2022-08-01T14:16:04;31.00;1.00
290;DHT22;13193;48.874;9.086;2022-08-01T14:18:30;30.80;1.00
290;DHT22;13193;48.874;9.086;2022-08-01T14:20:56;30.70;1.00
290;DHT22;13193;48.874;9.086;2022-08-01T14:23:24;30.50;1.00
290;DHT22;13193;48.874;9.086;2022-08-01T14:25:51;30.40;1.00
290;DHT22;13193;48.874;9.086;2022-08-01T14:28:17;30.30;1.00
290;DHT22;13193;48.874;9.086;2022-08-01T14:30:43;30.10;1.00
290;DHT22;13193;48.874;9.086;2022-08-01T14:33:10;30.10;1.00
290;DHT22;13193;48.874;9.086;2022-08-01T14:35:36;30.10;1.00
290;DHT22;13193;48.874;9.086;2022-08-01T14:38:02;29.90;1.00
290;DHT22;13193;48.874;9.086;2022-08-01T14:40:28;29.90;1.00
290;DHT22;13193;48.874;9.086;2022-08-01T14:42:54;29.90;1.00
290;DHT22;13193;48.874;9.086;2022-08-01T14:45:19;30.00;1.00
290;DHT22;13193;48.874;9.086;2022-08-01T14:47:45;30.00;1.00
290;DHT22;13193;48.874;9.086;2022-08-01T14:50:15;30.10;1.00
290;DHT22;13193;48.874;9.086;2022-08-01T14:52:41;30.10;1.00
290;DHT22;13193;48.874;9.086;2022-08-01T14:55:08;30.10;1.00
290;DHT22;13193;48.874;9.086;2022-08-01T14:57:35;30.20;1.00
290;DHT22;13193;48.874;9.086;2022-08-01T15:00:01;30.30;1.00
290;DHT22;13193;48.874;9.086;2022-08-01T15:02:26;30.40;1.00
290;DHT22;13193;48.874;9.086;2022-08-01T15:04:52;30.50;1.00
290;DHT22;13193;48.874;9.086;2022-08-01T15:07:19;30.70;1.00
290;DHT22;13193;48.874;9.086;2022-08-01T15:09:45;30.90;1.00
290;DHT22;13193;48.874;9.086;2022-08-01T15:12:13;31.10;1.00
290;DHT22;13193;48.874;9.086;2022-08-01T15:14:40;31.30;1.00
290;DHT22;13193;48.874;9.086;2022-08-01T15:17:26;31.30;1.00
290;DHT22;13193;48.874;9.086;2022-08-01T15:19:55;31.30;1.00
290;DHT22;13193;48.874;9.086;2022-08-01T15:22:22;31.20;1.00
290;DHT22;13193;48.874;9.086;2022-08-01T15:24:49;31.10;1.00
290;DHT22;13193;48.874;9.086;2022-08-01T15:27:18;30.80;1.00
290;DHT22;13193;48.874;9.086;2022-08-01T15:29:46;30.70;1.00
290;DHT22;13193;48.874;9.086;2022-08-01T15:32:11;30.60;1.00
290;DHT22;13193;48.874;9.086;2022-08-01T15:34:38;30.50;1.00
290;DHT22;13193;48.874;9.086;2022-08-01T15:37:05;30.40;1.00
290;DHT22;13193;48.874;9.086;2022-08-01T15:39:32;30.40;1.00
290;DHT22;13193;48.874;9.086;2022-08-01T15:42:13;30.50;1.00
290;DHT22;13193;48.874;9.086;2022-08-01T15:44:42;30.50;1.00
290;DHT22;13193;48.874;9.086;2022-08-01T15:47:08;30.50;1.00
290;DHT22;13193;48.874;9.086;2022-08-01T15:49:35;30.60;1.00
290;DHT22;13193;48.874;9.086;2022-08-01T15:52:05;30.60;1.00
290;DHT22;13193;48.874;9.086;2022-08-01T15:54:31;30.70;1.00
290;DHT22;13193;48.874;9.086;2022-08-01T15:56:57;30.40;1.00
290;DHT22;13193;48.874;9.086;2022-08-01T15:59:23;30.30;1.00
290;DHT22;13193;48.874;9.086;2022-08-01T16:01:48;30.30;1.00
290;DHT22;13193;48.874;9.086;2022-08-01T16:04:15;30.20;1.00
290;DHT22;13193;48.874;9.086;2022-08-01T16:06:41;30.00;1.00
290;DHT22;13193;48.874;9.086;2022-08-01T16:09:08;30.00;1.00
290;DHT22;13193;48.874;9.086;2022-08-01T16:11:34;30.10;1.00
290;DHT22;13193;48.874;9.086;2022-08-01T16:14:00;30.10;1.00
290;DHT22;13193;48.874;9.086;2022-08-01T16:16:26;30.30;1.00
290;DHT22;13193;48.874;9.086;2022-08-01T16:18:52;30.30;1.00
290;DHT22;13193;48.874;9.086;2022-08-01T16:21:20;30.30;1.00
290;DHT22;13193;48.874;9.086;2022-08-01T16:23:49;30.20;1.00
290;DHT22;13193;48.874;9.086;2022-08-01T16:26:15;30.20;1.00
290;DHT22;13193;48.874;9.086;2022-08-01T16:28:41;30.20;1.00
290;DHT22;13193;48.874;9.086;2022-08-01T16:31:07;30.10;1.00
290;DHT22;13193;48.874;9.086;2022-08-01T16:33:32;30.10;1.00
290;DHT22;13193;48.874;9.086;2022-08-01T16:35:59;30.00;1.00
290;DHT22;13193;48.874;9.086;2022-08-01T16:38:25;29.90;1.00
290;DHT22;13193;48.874;9.086;2022-08-01T16:40:51;29.80;1.00
290;DHT22;13193;48.874;9.086;2022-08-01T16:43:22;29.60;1.00
290;DHT22;13193;48.874;9.086;2022-08-01T16:45:48;29.40;1.00
290;DHT22;13193;48.874;9.086;2022-08-01T16:48:14;29.20;1.00
290;DHT22;13193;48.874;9.086;2022-08-01T16:50:41;29.10;1.00
290;DHT22;13193;48.874;9.086;2022-08-01T16:53:08;29.00;1.00
290;DHT22;13193;48.874;9.086;2022-08-01T16:55:34;28.80;1.00
290;DHT22;13193;48.874;9.086;2022-08-01T16:58:01;28.70;1.00
290;DHT22;13193;48.874;9.086;2022-08-01T17:00:27;28.60;1.00
290;DHT22;13193;48.874;9.086;2022-08-01T17:02:53;28.50;1.00
290;DHT22;13193;48.874;9.086;2022-08-01T17:05:19;28.40;1.00
290;DHT22;13193;48.874;9.086;2022-08-01T17:07:45;28.30;1.00
290;DHT22;13193;48.874;9.086;2022-08-01T17:10:14;28.30;1.00
290;DHT22;13193;48.874;9.086;2022-08-01T17:12:40;28.30;1.00
290;DHT22;13193;48.874;9.086;2022-08-01T17:15:07;28.40;1.00
290;DHT22;13193;48.874;9.086;2022-08-01T17:17:34;28.50;1.00
290;DHT22;13193;48.874;9.086;2022-08-01T17:20:00;28.60;1.00
290;DHT22;13193;48.874;9.086;2022-08-01T17:22:26;28.80;1.00